Time;durP1;ratioP1;P1;durP2;ratioP2;P2;SDS_P1;SDS_P2;PMS_P1;PMS_P2;Temp;Humidity;BMP_temperature;BMP_pressure;BME280_temperature;BME280_humidity;BME280_pressure;Samples;Min_cycle;Max_cycle;Signal;HPM_P1;HPM_P2
2022/05/30 00:00:27;;;;;;;7.38;1.92;;;;;;;9.01;76.52;101316.19;10474235;28;20053;-76
2022/05/30 00:05:30;;;;;;;4.68;1.73;;;;;;;8.88;76.60;101328.56;10458950;28;20044;-75
2022/05/30 00:10:32;;;;;;;7.32;1.95;;;;;;;8.84;76.67;101321.53;10474272;28;20048;-76
2022/05/30 00:15:34;;;;;;;5.55;1.83;;;;;;;8.63;76.48;101329.28;10475831;28;20048;-76
2022/05/30 00:20:36;;;;;;;8.98;1.95;;;;;;;8.52;76.85;101326.28;10492448;28;20098;-76
2022/05/30 00:25:40;;;;;;;10.13;2.42;;;;;;;8.46;76.43;101325.09;10493158;28;20059;-77
2022/05/30 00:30:43;;;;;;;5.22;1.98;;;;;;;8.29;77.21;101324.41;10491582;28;20492;-76
2022/05/30 00:35:45;;;;;;;6.90;2.40;;;;;;;8.24;77.23;101319.94;10455993;28;20060;-77
2022/05/30 00:40:47;;;;;;;5.72;2.20;;;;;;;8.28;77.48;101309.81;10490970;28;20127;-76
2022/05/30 00:45:48;;;;;;;6.40;2.20;;;;;;;8.32;77.78;101306.53;10490872;28;20106;-75
2022/05/30 00:50:53;;;;;;;5.97;2.30;;;;;;;8.39;76.49;101294.03;10474152;28;20144;-77
2022/05/30 00:55:57;;;;;;;8.48;2.42;;;;;;;8.42;76.34;101296.72;10473408;28;20044;-76
2022/05/30 01:00:59;;;;;;;5.80;2.03;;;;;;;8.53;77.99;101302.31;10491722;28;20033;-76
2022/05/30 01:11:22;;;;;;;7.35;2.55;;;;;;;8.71;77.64;101296.19;10455193;28;20041;-76
2022/05/30 01:16:24;;;;;;;10.00;2.97;;;;;;;8.66;77.84;101297.69;10473598;28;20537;-76
2022/05/30 01:21:51;;;;;;;8.90;2.42;;;;;;;8.68;77.88;101296.03;10475990;28;20071;-77
2022/05/30 01:27:24;;;;;;;6.43;2.50;;;;;;;8.69;78.02;101293.56;10481480;28;20064;-76
2022/05/30 01:32:30;;;;;;;7.32;2.50;;;;;;;8.75;78.50;101287.75;10475626;28;20059;-76
2022/05/30 01:37:32;;;;;;;5.75;2.15;;;;;;;8.77;78.12;101283.56;10479750;28;20044;-77
2022/05/30 01:42:34;;;;;;;7.18;2.38;;;;;;;8.79;78.18;101286.19;10480313;28;20049;-75
2022/05/30 01:47:36;;;;;;;10.32;3.65;;;;;;;8.78;78.31;101277.63;10463102;28;20040;-76
2022/05/30 01:52:38;;;;;;;9.85;2.55;;;;;;;8.74;77.56;101275.75;10480334;28;20043;-76
2022/05/30 01:57:39;;;;;;;6.20;2.65;;;;;;;8.51;78.00;101278.28;10432722;28;20072;-76
2022/05/30 02:03:00;;;;;;;8.73;2.80;;;;;;;8.64;78.04;101268.50;10492081;28;20392;-76
2022/05/30 02:08:02;;;;;;;10.65;3.58;;;;;;;8.64;78.03;101263.34;10493776;28;20045;-76
2022/05/30 02:13:05;;;;;;;12.75;3.88;;;;;;;8.43;78.68;101271.94;10519472;28;20041;-76
2022/05/30 02:18:31;;;;;;;10.43;3.20;;;;;;;8.53;79.21;101274.06;10498502;28;20076;-76
2022/05/30 02:23:33;;;;;;;7.30;3.22;;;;;;;8.48;78.95;101267.88;10479957;28;20503;-76
2022/05/30 02:28:35;;;;;;;8.00;3.45;;;;;;;8.34;79.83;101274.97;10478538;28;20041;-76
2022/05/30 02:38:57;;;;;;;9.90;3.05;;;;;;;8.29;78.84;101280.75;10478034;28;20040;-76
2022/05/30 02:44:34;;;;;;;7.88;2.83;;;;;;;8.14;79.03;101273.28;10483728;28;20053;-76
2022/05/30 02:49:36;;;;;;;7.28;2.83;;;;;;;8.02;79.16;101277.09;10477862;28;20068;-76
2022/05/30 02:54:39;;;;;;;7.90;2.60;;;;;;;7.90;79.72;101271.44;10461167;28;20076;-76
2022/05/30 02:59:41;;;;;;;10.75;3.10;;;;;;;7.76;78.95;101278.56;10477432;28;20407;-76
2022/05/30 03:04:43;;;;;;;7.95;2.88;;;;;;;7.70;78.92;101278.28;10471622;28;20072;-76
2022/05/30 03:09:45;;;;;;;5.20;2.70;;;;;;;7.56;79.73;101283.66;10476884;28;20565;-76
2022/05/30 03:14:55;;;;;;;7.25;3.40;;;;;;;7.59;78.83;101281.25;10476977;28;20045;-76
2022/05/30 03:19:57;;;;;;;7.43;3.08;;;;;;;7.45;79.94;101279.75;10477341;28;20044;-77
2022/05/30 03:25:00;;;;;;;5.53;2.97;;;;;;;7.47;79.81;101280.72;10477812;28;20036;-76
2022/05/30 03:30:02;;;;;;;6.82;2.50;;;;;;;7.45;79.97;101282.31;10493736;28;20044;-77
2022/05/30 03:35:05;;;;;;;7.85;3.10;;;;;;;7.40;80.21;101284.69;10476374;28;20048;-77
2022/05/30 03:40:15;;;;;;;8.88;2.75;;;;;;;7.56;80.48;101281.09;10475851;28;20071;-76
2022/05/30 03:45:49;;;;;;;7.82;3.10;;;;;;;7.68;80.42;101291.03;10470128;28;20258;-76
2022/05/30 03:50:51;;;;;;;9.18;3.45;;;;;;;7.78;79.41;101287.19;10475801;28;20036;-76
2022/05/30 03:55:53;;;;;;;8.77;3.20;;;;;;;7.89;79.45;101283.41;10458885;28;20048;-76
2022/05/30 04:00:56;;;;;;;7.28;3.20;;;;;;;7.97;79.81;101277.72;10459380;28;20533;-76
2022/05/30 04:05:58;;;;;;;8.07;3.08;;;;;;;7.99;79.06;101278.66;10449389;28;20044;-76
2022/05/30 04:11:02;;;;;;;8.70;3.38;;;;;;;8.14;79.51;101276.75;10475373;28;20544;-76
2022/05/30 04:16:29;;;;;;;6.65;3.28;;;;;;;8.20;80.33;101281.22;10464378;28;20060;-76
2022/05/30 04:21:36;;;;;;;10.25;3.55;;;;;;;8.34;80.36;101274.97;10473822;28;20496;-76
2022/05/30 04:26:39;;;;;;;8.73;3.22;;;;;;;8.41;79.76;101283.81;10473460;28;20037;-76
2022/05/30 04:31:41;;;;;;;8.25;2.60;;;;;;;8.30;80.54;101285.09;10474690;28;20083;-77
2022/05/30 04:36:45;;;;;;;7.32;3.08;;;;;;;8.61;79.34;101278.63;10474487;28;20496;-76
2022/05/30 04:41:47;;;;;;;9.07;3.20;;;;;;;8.79;78.32;101279.38;10491954;28;20106;-76
2022/05/30 04:47:15;;;;;;;9.43;3.40;;;;;;;8.70;79.32;101282.47;10491874;28;20049;-76
2022/05/30 04:52:22;;;;;;;9.35;2.90;;;;;;;8.93;78.75;101284.16;10457664;28;20045;-77
2022/05/30 04:57:25;;;;;;;6.30;2.80;;;;;;;8.96;78.99;101271.44;10463291;28;20045;-77
2022/05/30 05:02:51;;;;;;;9.48;3.35;;;;;;;9.13;77.67;101279.78;10481408;28;20414;-77
2022/05/30 05:08:14;;;;;;;5.40;2.95;;;;;;;9.33;79.00;101286.56;10464284;28;20567;-76
2022/05/30 05:13:34;;;;;;;9.83;3.37;;;;;;;9.29;77.15;101283.81;10500154;28;20045;-76
2022/05/30 05:19:10;;;;;;;8.23;3.03;;;;;;;9.57;76.70;101297.72;10485301;28;20056;-76
2022/05/30 05:24:13;;;;;;;12.18;3.08;;;;;;;9.74;76.58;101291.44;10490816;28;20127;-76
2022/05/30 05:29:37;;;;;;;8.20;3.10;;;;;;;9.77;76.69;101300.97;10470022;28;20499;-76
2022/05/30 05:34:39;;;;;;;6.68;2.80;;;;;;;10.01;75.69;101300.97;10498648;28;20041;-76
2022/05/30 05:39:41;;;;;;;9.32;3.13;;;;;;;10.15;75.21;101304.91;10480831;28;20041;-76
2022/05/30 05:44:46;;;;;;;6.18;2.92;;;;;;;9.96;74.40;101315.38;10465765;28;20048;-76
2022/05/30 05:49:48;;;;;;;6.57;2.83;;;;;;;10.26;74.92;101312.09;10463511;28;20044;-76
2022/05/30 05:54:54;;;;;;;8.75;2.67;;;;;;;10.20;75.26;101322.19;10480027;28;20072;-76
2022/05/30 05:59:56;;;;;;;5.53;2.65;;;;;;;10.41;74.58;101316.94;10479443;28;20052;-76
2022/05/30 06:04:58;;;;;;;5.43;2.40;;;;;;;10.64;72.63;101315.09;10479772;28;20075;-76
2022/05/30 06:10:19;;;;;;;;;;;;;;;10.71;73.04;101316.19;10496156;28;20098;-77
2022/05/30 06:15:29;;;;;;;5.63;2.65;;;;;;;10.92;72.78;101303.06;10479597;28;19930;-76
2022/05/30 06:20:44;;;;;;;9.23;2.80;;;;;;;10.81;70.51;101317.34;10465064;28;20456;-77
2022/05/30 06:25:46;;;;;;;8.98;2.25;;;;;;;11.20;70.18;101311.66;10496564;28;20042;-76
2022/05/30 06:31:14;;;;;;;6.00;2.50;;;;;;;11.13;69.86;101320.06;10455486;28;20049;-76
2022/05/30 06:36:22;;;;;;;7.20;2.30;;;;;;;11.39;69.36;101310.50;10502727;28;20090;-77
2022/05/30 06:41:26;;;;;;;5.45;2.33;;;;;;;11.70;69.52;101309.66;10512885;28;20078;-76
2022/05/30 06:46:33;;;;;;;8.18;2.30;;;;;;;11.82;69.50;101318.56;10495703;28;20102;-76
2022/05/30 06:51:57;;;;;;;6.50;1.98;;;;;;;11.90;64.85;101324.81;10460715;28;20040;-77
2022/05/30 07:02:20;;;;;;;;;;;;;;;11.94;64.74;101328.34;10469649;28;20049;-75
2022/05/30 07:07:42;;;;;;;6.55;1.50;;;;;;;12.17;62.36;101336.75;10478441;28;19926;-75
2022/05/30 07:12:58;;;;;;;4.68;1.25;;;;;;;12.10;63.05;101335.72;10496057;28;20036;-76
2022/05/30 07:18:12;;;;;;;5.00;1.70;;;;;;;12.27;63.81;101333.56;10477895;28;20052;-76
2022/05/30 07:23:14;;;;;;;6.93;1.75;;;;;;;12.50;62.55;101343.63;10479023;28;20040;-76
2022/05/30 07:28:35;;;;;;;4.45;1.55;;;;;;;12.73;63.26;101346.78;10487756;28;20048;-76
2022/05/30 07:33:57;;;;;;;5.47;1.85;;;;;;;12.82;61.57;101344.41;10492102;28;20044;-76
2022/05/30 07:39:18;;;;;;;3.03;1.20;;;;;;;12.93;62.06;101349.81;10488138;28;20041;-75
2022/05/30 07:44:45;;;;;;;3.08;1.10;;;;;;;13.39;57.59;101343.97;10477187;28;20089;-76
2022/05/30 07:49:53;;;;;;;2.85;1.20;;;;;;;13.11;59.85;101343.31;10478187;28;20045;-76
2022/05/30 07:55:02;;;;;;;3.85;1.25;;;;;;;13.00;60.34;101343.94;10477650;28;20119;-76
2022/05/30 08:00:08;;;;;;;3.15;1.25;;;;;;;13.51;59.48;101333.00;10476206;28;20045;-76
2022/05/30 08:05:13;;;;;;;5.22;1.50;;;;;;;13.25;57.67;101333.31;10446674;28;20048;-75
2022/05/30 08:10:53;;;;;;;3.72;1.00;;;;;;;13.26;57.34;101329.84;10493321;28;20041;-77
2022/05/30 08:15:56;;;;;;;1.85;0.90;;;;;;;13.45;58.95;101331.16;10447099;28;20045;-75
2022/05/30 08:21:04;;;;;;;3.80;0.98;;;;;;;13.45;57.18;101337.22;10435243;28;20037;-76
2022/05/30 08:26:13;;;;;;;2.78;0.80;;;;;;;13.70;54.10;101342.00;10457634;28;20139;-76
2022/05/30 08:31:36;;;;;;;3.03;0.88;;;;;;;15.48;53.02;101332.81;10491923;28;20466;-76
2022/05/30 08:37:23;;;;;;;4.68;2.05;;;;;;;15.15;52.82;101333.25;10324720;28;20043;-76
2022/05/30 08:42:28;;;;;;;2.55;0.80;;;;;;;14.43;54.00;101331.25;10430242;28;20048;-76
2022/05/30 08:48:00;;;;;;;1.10;0.50;;;;;;;15.07;54.23;101321.03;10472745;28;20048;-76
2022/05/30 08:53:29;;;;;;;2.15;0.60;;;;;;;15.02;54.09;101325.28;10459855;28;20051;-77
2022/05/30 08:59:03;;;;;;;1.92;0.60;;;;;;;14.86;53.31;101326.78;10486196;28;20055;-77
2022/05/30 09:04:31;;;;;;;1.60;0.60;;;;;;;14.77;54.87;101331.84;10469160;28;20049;-76
2022/05/30 09:09:43;;;;;;;0.95;0.52;;;;;;;13.89;52.75;101330.28;10458715;28;20052;-76
2022/05/30 09:15:11;;;;;;;1.88;0.60;;;;;;;14.73;51.74;101330.94;10472184;28;20083;-76
2022/05/30 09:20:21;;;;;;;1.60;0.60;;;;;;;14.89;50.34;101337.22;10464549;28;20131;-77
2022/05/30 09:31:21;;;;;;;1.08;0.50;;;;;;;14.21;50.79;101340.38;10476154;28;20135;-77
2022/05/30 09:36:55;;;;;;;1.48;0.60;;;;;;;13.90;53.67;101330.31;10493392;28;20040;-76
2022/05/30 09:42:30;;;;;;;1.58;0.60;;;;;;;13.57;55.29;101341.78;10478801;28;20102;-76
2022/05/30 09:47:35;;;;;;;3.03;0.90;;;;;;;13.12;54.22;101347.66;10483047;28;20041;-76
2022/05/30 09:52:52;;;;;;;5.05;0.60;;;;;;;13.63;54.02;101341.91;10481743;28;20086;-76
2022/05/30 09:58:00;;;;;;;1.60;0.70;;;;;;;13.81;54.52;101343.13;10483079;28;20047;-76
2022/05/30 10:03:12;;;;;;;1.05;0.52;;;;;;;13.69;54.02;101337.66;10476912;28;20055;-77
2022/05/30 10:08:30;;;;;;;1.88;0.50;;;;;;;13.95;49.19;101349.44;10457777;28;20082;-77
2022/05/30 10:13:42;;;;;;;2.50;1.13;;;;;;;14.39;54.50;101347.63;10482478;28;20056;-76
2022/05/30 10:18:55;;;;;;;2.65;0.80;;;;;;;14.23;50.82;101355.13;10501549;28;20037;-76
2022/05/30 10:30:28;;;;;;;1.92;0.47;;;;;;;14.99;49.73;101355.50;10472103;28;20426;-77
2022/05/30 10:36:03;;;;;;;2.00;0.63;;;;;;;15.24;47.28;101369.72;10500697;28;20048;-76
2022/05/30 10:41:09;;;;;;;0.77;0.52;;;;;;;14.60;46.34;101370.41;10482219;28;20411;-76
2022/05/30 10:46:35;;;;;;;2.58;0.40;;;;;;;15.38;47.46;101356.91;10480504;28;20044;-76
2022/05/30 10:51:50;;;;;;;2.30;0.40;;;;;;;15.26;48.03;101356.75;10451362;28;20110;-76
2022/05/30 10:57:00;;;;;;;1.58;0.50;;;;;;;15.68;47.33;101360.75;10464667;28;20050;-77
2022/05/30 11:02:13;;;;;;;4.85;0.52;;;;;;;15.53;45.19;101357.09;10481242;28;20052;-76
2022/05/30 11:07:36;;;;;;;2.03;0.70;;;;;;;15.74;51.28;101352.16;10477698;28;20143;-76
2022/05/30 11:12:45;;;;;;;0.95;0.60;;;;;;;15.23;52.88;101348.06;10470851;28;20044;-76
2022/05/30 11:17:54;;;;;;;2.10;0.83;;;;;;;15.20;51.58;101357.53;10476779;28;20044;-76
2022/05/30 11:24:05;;;;;;;0.90;0.52;;;;;;;14.71;51.79;101373.22;10497010;28;20053;-76
2022/05/30 11:29:22;;;;;;;3.40;0.70;;;;;;;14.79;51.48;101374.22;10480464;28;20032;-76
2022/05/30 11:34:39;;;;;;;2.47;0.80;;;;;;;15.21;52.68;101380.03;10497623;28;20048;-76
2022/05/30 11:40:20;;;;;;;2.83;0.80;;;;;;;15.09;50.20;101370.34;10479015;28;20495;-77
2022/05/30 11:45:40;;;;;;;1.60;0.77;;;;;;;15.21;49.94;101373.16;10443194;28;20106;-76
2022/05/30 11:50:55;;;;;;;1.33;0.80;;;;;;;15.33;51.05;101375.03;10498694;28;20165;-77
2022/05/30 11:56:44;;;;;;;2.83;0.90;;;;;;;14.75;48.42;101372.44;10479221;28;20059;-76
2022/05/30 12:01:51;;;;;;;0.63;0.40;;;;;;;15.37;46.00;101370.78;10269350;28;20055;-77
2022/05/30 12:07:11;;;;;;;1.27;0.50;;;;;;;15.67;46.85;101369.41;10321286;28;20044;-76
2022/05/30 12:12:22;;;;;;;1.75;1.15;;;;;;;15.46;50.00;101363.06;10482363;28;20511;-76
2022/05/30 12:17:36;;;;;;;0.75;0.40;;;;;;;15.52;41.84;101376.16;10485503;28;20438;-76
2022/05/30 12:28:26;;;;;;;1.38;0.43;;;;;;;15.80;43.10;101365.22;10478092;28;20091;-76
2022/05/30 12:33:33;;;;;;;0.68;0.38;;;;;;;16.42;43.45;101360.69;10490657;28;20330;-76
2022/05/30 12:38:54;;;;;;;1.25;0.38;;;;;;;16.37;42.33;101358.06;10493944;28;20047;-76
2022/05/30 12:43:57;;;;;;;1.52;0.43;;;;;;;16.54;40.94;101359.94;10494915;28;20041;-76
2022/05/30 12:49:03;;;;;;;2.05;0.43;;;;;;;16.64;41.45;101351.34;10475280;28;20048;-77
2022/05/30 12:54:05;;;;;;;3.53;0.63;;;;;;;15.88;47.38;101352.38;10474476;28;20106;-76
2022/05/30 12:59:24;;;;;;;2.33;0.68;;;;;;;15.64;47.75;101358.97;10477662;28;20033;-76
2022/05/30 13:04:41;;;;;;;3.13;0.97;;;;;;;15.66;48.27;101363.34;10494317;28;20102;-76
2022/05/30 13:09:47;;;;;;;1.95;0.70;;;;;;;15.53;49.94;101358.84;10471813;28;20541;-76
2022/05/30 13:15:01;;;;;;;3.08;0.82;;;;;;;15.73;46.99;101373.78;10480832;28;20060;-77
2022/05/30 13:20:09;;;;;;;3.35;1.10;;;;;;;15.59;47.20;101361.50;10522041;28;20090;-77
2022/05/30 13:25:17;;;;;;;4.93;1.23;;;;;;;15.95;49.61;101360.22;10497943;28;20041;-76
2022/05/30 13:30:23;;;;;;;2.47;1.17;;;;;;;16.00;49.17;101363.78;10502023;28;20040;-77
2022/05/30 13:35:31;;;;;;;2.47;0.98;;;;;;;16.13;47.22;101364.75;10464898;28;20056;-76
2022/05/30 13:40:34;;;;;;;3.97;1.02;;;;;;;16.17;45.87;101365.66;10467999;28;20454;-76
2022/05/30 13:45:40;;;;;;;3.17;0.88;;;;;;;16.12;43.10;101367.34;10480835;28;20044;-76
2022/05/30 13:50:52;;;;;;;4.07;1.20;;;;;;;16.04;45.81;101364.69;10491367;28;20499;-76
2022/05/30 13:56:04;;;;;;;3.53;0.90;;;;;;;16.53;43.44;101363.38;10487227;28;20056;-76
2022/05/30 14:01:12;;;;;;;1.85;0.80;;;;;;;16.63;45.06;101349.63;10492248;28;20081;-76
2022/05/30 14:06:39;;;;;;;4.30;1.10;;;;;;;16.74;48.71;101347.94;10454120;28;20510;-76
2022/05/30 14:11:47;;;;;;;1.83;0.80;;;;;;;16.75;46.96;101347.09;10493600;28;20368;-76
2022/05/30 14:17:10;;;;;;;2.53;1.05;;;;;;;16.67;42.27;101351.38;10483212;28;20044;-76
2022/05/30 14:22:20;;;;;;;3.85;0.95;;;;;;;17.25;45.29;101344.81;10473789;28;20037;-76
2022/05/30 14:27:23;;;;;;;4.22;0.80;;;;;;;16.98;43.08;101343.81;10484608;28;20045;-75
2022/05/30 14:32:33;;;;;;;4.65;1.58;;;;;;;16.40;41.50;101358.09;10494041;28;20033;-77
2022/05/30 14:37:41;;;;;;;2.40;1.30;;;;;;;17.99;40.84;101345.13;10491873;28;20056;-76
2022/05/30 14:42:48;;;;;;;3.15;0.90;;;;;;;17.77;40.69;101334.63;10469995;28;20090;-76
2022/05/30 14:47:52;;;;;;;3.83;1.00;;;;;;;17.27;38.48;101337.91;10481385;28;20044;-76
2022/05/30 14:52:58;;;;;;;2.25;0.90;;;;;;;17.24;39.37;101343.06;10491122;28;20056;-76
2022/05/30 14:58:10;;;;;;;1.70;0.70;;;;;;;17.16;40.22;101352.59;10487580;28;20045;-76
2022/05/30 15:08:36;;;;;;;1.52;0.70;;;;;;;17.02;37.98;101347.31;10480407;28;20052;-78
2022/05/30 15:13:37;;;;;;;3.17;0.88;;;;;;;16.04;40.43;101349.09;10496685;28;20621;-77
2022/05/30 15:18:39;;;;;;;1.58;0.80;;;;;;;15.66;40.25;101352.94;10496319;28;20060;-77
2022/05/30 15:23:49;;;;;;;2.10;0.70;;;;;;;16.32;39.88;101359.75;10482205;28;20052;-76
2022/05/30 15:28:51;;;;;;;;;;;;;;;16.17;39.92;101353.53;10489297;28;20396;-77
2022/05/30 15:33:54;;;;;;;3.50;0.60;;;;;;;16.11;41.42;101348.28;10451921;28;19935;-77
2022/05/30 15:38:56;;;;;;;1.70;0.77;;;;;;;16.45;39.44;101356.41;10493863;28;20040;-78
2022/05/30 15:43:59;;;;;;;2.60;0.60;;;;;;;15.74;40.24;101350.44;10486709;28;20498;-78
2022/05/30 15:49:01;;;;;;;1.90;0.60;;;;;;;15.43;40.77;101350.06;10495749;28;20484;-77
2022/05/30 15:59:25;;;;;;;2.65;0.80;;;;;;;15.19;41.43;101343.69;10490790;28;20041;-77
2022/05/30 16:04:27;;;;;;;1.58;0.63;;;;;;;15.35;40.52;101343.91;10495697;28;20052;-78
2022/05/30 16:09:35;;;;;;;1.52;0.77;;;;;;;15.58;39.54;101344.19;10477413;28;20044;-78
2022/05/30 16:14:36;;;;;;;1.35;0.65;;;;;;;15.46;39.25;101339.72;10495853;28;20040;-78
2022/05/30 16:19:38;;;;;;;2.75;0.80;;;;;;;16.09;42.22;101337.00;10495180;28;20098;-78
2022/05/30 16:24:40;;;;;;;2.88;0.63;;;;;;;16.10;44.35;101333.53;10478106;28;20044;-78
2022/05/30 16:29:41;;;;;;;1.70;0.70;;;;;;;15.92;43.60;101328.16;10495064;28;20102;-79
2022/05/30 16:34:43;;;;;;;5.57;1.45;;;;;;;15.70;42.03;101327.88;10494544;28;20071;-78
2022/05/30 16:40:02;;;;;;;3.63;0.80;;;;;;;15.73;41.15;101327.94;10489262;28;20488;-77
2022/05/30 16:45:05;;;;;;;3.27;0.63;;;;;;;16.11;42.45;101324.91;10493880;28;20044;-79
2022/05/30 16:50:07;;;;;;;1.30;0.60;;;;;;;16.14;47.09;101322.31;10493707;28;20037;-78
2022/05/30 16:55:10;;;;;;;2.63;0.90;;;;;;;15.79;46.42;101328.00;10469624;28;20094;-77
2022/05/30 17:00:33;;;;;;;2.25;0.70;;;;;;;15.73;49.08;101319.25;10499041;28;20071;-77
2022/05/30 17:05:38;;;;;;;5.63;1.05;;;;;;;15.25;45.83;101327.34;10503714;28;20125;-77
2022/05/30 17:10:40;;;;;;;4.43;0.90;;;;;;;15.30;47.29;101323.06;10477930;28;20045;-76
2022/05/30 17:15:42;;;;;;;3.80;0.98;;;;;;;15.43;48.01;101331.91;10481990;28;20044;-76
2022/05/30 17:20:46;;;;;;;1.95;0.80;;;;;;;15.37;46.03;101335.28;10476086;28;20049;-76
2022/05/30 17:25:52;;;;;;;1.42;0.82;;;;;;;15.45;50.55;101322.38;10495304;28;20644;-76
2022/05/30 17:30:56;;;;;;;2.45;0.90;;;;;;;15.41;49.30;101333.59;10498225;28;20037;-76
2022/05/30 17:35:58;;;;;;;2.25;0.70;;;;;;;15.04;48.42;101340.88;10498299;28;20059;-76
2022/05/30 17:41:01;;;;;;;4.60;0.90;;;;;;;14.95;49.04;101343.31;10497776;28;20090;-76
2022/05/30 17:46:08;;;;;;;2.22;0.70;;;;;;;14.87;47.88;101338.91;10479357;28;20546;-76
2022/05/30 17:51:22;;;;;;;1.92;0.60;;;;;;;14.95;48.36;101340.75;10497318;28;20032;-76
2022/05/30 17:56:27;;;;;;;3.08;1.10;;;;;;;15.04;49.44;101346.94;10479324;28;20492;-76
2022/05/30 18:01:31;;;;;;;2.25;0.88;;;;;;;15.06;48.77;101334.00;10493424;28;20037;-76
2022/05/30 18:06:55;;;;;;;1.90;0.70;;;;;;;14.99;48.67;101351.19;10496727;28;20045;-76
2022/05/30 18:12:18;;;;;;;2.53;1.13;;;;;;;14.99;50.04;101347.72;10496648;28;20521;-76
2022/05/30 18:17:23;;;;;;;5.07;1.30;;;;;;;14.97;51.15;101337.31;10477009;28;20418;-76
2022/05/30 18:22:47;;;;;;;2.95;1.02;;;;;;;14.87;52.37;101343.22;10497719;28;20037;-76
2022/05/30 18:27:58;;;;;;;2.35;0.98;;;;;;;15.03;53.91;101346.91;10458778;28;20076;-76
2022/05/30 18:33:02;;;;;;;2.15;0.90;;;;;;;14.77;50.51;101344.81;10496739;28;20110;-76
2022/05/30 18:38:31;;;;;;;1.95;0.95;;;;;;;14.60;51.03;101354.84;10496507;28;20051;-76
2022/05/30 18:43:56;;;;;;;3.22;1.08;;;;;;;14.43;51.03;101352.00;10494082;28;20052;-77
2022/05/30 18:49:24;;;;;;;2.47;0.82;;;;;;;14.33;50.42;101361.34;10487554;28;20037;-77
2022/05/30 18:54:26;;;;;;;4.32;0.80;;;;;;;14.37;52.11;101362.25;10495342;28;20048;-77
2022/05/30 18:59:33;;;;;;;3.25;1.20;;;;;;;14.19;52.34;101363.66;10477333;28;20036;-76
2022/05/30 19:04:35;;;;;;;4.95;1.13;;;;;;;14.30;51.73;101363.00;10488544;28;20048;-76
2022/05/30 19:09:37;;;;;;;2.72;0.85;;;;;;;14.35;53.81;101363.94;10481160;28;20047;-76
2022/05/30 19:14:45;;;;;;;1.98;1.10;;;;;;;14.07;54.28;101363.44;10495190;28;20102;-77
2022/05/30 19:20:14;;;;;;;4.25;1.15;;;;;;;13.82;52.95;101368.13;10477636;28;20052;-76
2022/05/30 19:25:21;;;;;;;3.50;1.23;;;;;;;13.53;54.90;101376.19;10498264;28;20412;-77
2022/05/30 19:30:26;;;;;;;1.60;0.80;;;;;;;13.71;55.24;101375.69;10494890;28;20487;-77
2022/05/30 19:35:32;;;;;;;2.08;0.93;;;;;;;13.51;56.25;101375.31;10477108;28;20443;-77
2022/05/30 19:40:44;;;;;;;2.40;1.20;;;;;;;13.35;55.85;101386.13;10476122;28;20403;-76
2022/05/30 19:45:47;;;;;;;3.50;1.20;;;;;;;13.26;55.81;101385.06;10492930;28;20032;-78
2022/05/30 19:50:50;;;;;;;4.50;1.58;;;;;;;13.21;55.71;101389.28;10472653;28;20041;-76
2022/05/30 19:55:52;;;;;;;1.73;1.20;;;;;;;13.07;56.14;101395.84;10493306;28;20457;-77
2022/05/30 20:00:55;;;;;;;1.98;1.00;;;;;;;12.72;59.33;101408.78;10474754;28;20048;-76
2022/05/30 20:05:57;;;;;;;4.28;1.60;;;;;;;12.68;60.25;101408.72;10476177;28;20116;-77
2022/05/30 20:10:59;;;;;;;3.63;1.30;;;;;;;12.11;62.27;101411.47;10492974;28;20489;-77
2022/05/30 20:16:06;;;;;;;2.80;1.50;;;;;;;11.81;63.23;101409.75;10492979;28;20052;-77
2022/05/30 20:21:08;;;;;;;3.22;1.40;;;;;;;11.82;65.82;101411.50;10493946;28;20051;-77
2022/05/30 20:26:10;;;;;;;3.30;1.83;;;;;;;11.79;64.90;101417.44;10475674;28;20109;-77
2022/05/30 20:31:12;;;;;;;2.22;1.73;;;;;;;11.46;64.67;101427.66;10474557;28;20060;-77
2022/05/30 20:36:15;;;;;;;5.45;1.80;;;;;;;11.77;62.74;101434.59;10493892;28;20032;-77
2022/05/30 20:46:39;;;;;;;2.30;1.52;;;;;;;11.40;66.38;101433.47;10491274;28;20049;-77
2022/05/30 20:51:42;;;;;;;4.28;2.00;;;;;;;11.40;66.04;101438.66;10494199;28;20032;-77
2022/05/30 20:56:43;;;;;;;4.22;1.70;;;;;;;11.13;67.27;101431.78;10470187;28;20048;-77
2022/05/30 21:01:46;;;;;;;2.78;1.90;;;;;;;11.02;67.64;101435.75;10472379;28;20052;-76
2022/05/30 21:06:48;;;;;;;3.00;2.03;;;;;;;11.03;67.25;101428.06;10476303;28;20041;-77
2022/05/30 21:11:49;;;;;;;6.28;2.17;;;;;;;10.73;68.37;101433.94;10493906;28;20044;-76
2022/05/30 21:17:18;;;;;;;2.90;1.95;;;;;;;10.56;68.98;101424.75;10494051;28;20553;-76
2022/05/30 21:22:22;;;;;;;5.35;2.50;;;;;;;10.68;68.27;101429.44;10472936;28;20045;-78
2022/05/30 21:27:24;;;;;;;3.47;2.05;;;;;;;10.07;70.77;101422.19;10488081;28;20111;-77
2022/05/30 21:32:50;;;;;;;4.93;2.20;;;;;;;10.21;71.34;101425.22;10490381;28;20036;-77
2022/05/30 21:37:52;;;;;;;4.22;2.50;;;;;;;9.74;72.79;101430.41;10489598;28;20075;-77
2022/05/30 21:42:54;;;;;;;3.83;2.33;;;;;;;9.59;71.43;101422.09;10497969;28;20041;-79
2022/05/30 21:47:58;;;;;;;4.88;2.30;;;;;;;9.86;69.65;101421.41;10497567;28;20048;-77
2022/05/30 21:53:01;;;;;;;4.30;2.45;;;;;;;9.89;69.63;101426.63;10497481;28;20047;-77
2022/05/30 21:58:04;;;;;;;7.35;2.78;;;;;;;9.96;69.47;101428.63;10496864;28;20041;-77
2022/05/30 22:03:13;;;;;;;3.90;2.50;;;;;;;10.06;68.45;101417.84;10478932;28;20048;-78
2022/05/30 22:08:18;;;;;;;6.85;2.90;;;;;;;9.93;70.05;101416.53;10496628;28;20491;-77
2022/05/30 22:19:38;;;;;;;3.33;2.47;;;;;;;9.81;69.03;101432.38;10495078;28;20066;-78
2022/05/30 22:24:40;;;;;;;5.55;2.35;;;;;;;9.58;70.93;101439.25;10497177;28;20045;-78
2022/05/30 22:29:41;;;;;;;6.45;2.95;;;;;;;9.58;69.65;101440.91;10495949;28;20053;-77
2022/05/30 22:34:43;;;;;;;4.38;3.08;;;;;;;9.44;69.98;101436.13;10496426;28;20098;-78
2022/05/30 22:39:48;;;;;;;4.63;2.53;;;;;;;9.14;71.37;101446.06;10495787;28;20048;-78
2022/05/30 22:44:49;;;;;;;4.97;2.78;;;;;;;8.89;73.64;101445.97;10477787;28;20040;-78
2022/05/30 22:49:52;;;;;;;5.22;2.63;;;;;;;8.81;73.02;101437.03;10494271;28;20487;-77
2022/05/30 22:54:54;;;;;;;4.25;2.90;;;;;;;8.69;74.17;101436.50;10476170;28;20040;-78
2022/05/30 22:59:56;;;;;;;5.00;2.70;;;;;;;8.77;73.79;101435.16;10490717;28;20404;-77
2022/05/30 23:04:57;;;;;;;4.47;3.05;;;;;;;8.64;73.58;101435.44;10494769;28;20048;-78
2022/05/30 23:09:59;;;;;;;5.00;3.13;;;;;;;8.31;75.66;101439.16;10510545;28;20036;-77
2022/05/30 23:15:05;;;;;;;4.32;3.00;;;;;;;8.44;76.10;101437.13;10496024;28;20051;-78
2022/05/30 23:20:15;;;;;;;6.32;3.40;;;;;;;8.48;75.02;101434.78;10502710;28;20114;-77
2022/05/30 23:25:17;;;;;;;7.40;3.30;;;;;;;8.42;75.41;101431.94;10515434;28;20083;-78
2022/05/30 23:30:19;;;;;;;5.43;3.45;;;;;;;8.36;75.57;101429.97;10505277;28;20094;-78
2022/05/30 23:35:23;;;;;;;6.82;3.20;;;;;;;8.49;75.28;101428.84;10476798;28;20041;-78
2022/05/30 23:40:25;;;;;;;5.15;3.53;;;;;;;8.58;74.07;101428.34;10474365;28;20032;-78
2022/05/30 23:45:27;;;;;;;6.32;3.78;;;;;;;8.70;73.24;101423.75;10493705;28;20087;-78
2022/05/30 23:50:30;;;;;;;5.25;3.40;;;;;;;8.68;72.80;101424.47;10492652;28;20395;-77
2022/05/30 23:55:32;;;;;;;6.85;3.40;;;;;;;8.78;72.63;101416.34;10474969;28;20049;-78
